Time;durP1;ratioP1;P1;durP2;ratioP2;P2;SDS_P1;SDS_P2;PMS_P1;PMS_P2;Temp;Humidity;BMP_temperature;BMP_pressure;BME280_temperature;BME280_humidity;BME280_pressure;Samples;Min_cycle;Max_cycle;Signal;HPM_P1;HPM_P2
2022/05/10 00:01:21;;;;;;;4.45;2.65;;;;;;;;;;12645920;23;20279;-67
2022/05/10 00:06:25;;;;;;;2.83;2.40;;;;;;;;;;12619559;23;20185;-68
2022/05/10 00:11:26;;;;;;;2.08;1.98;;;;;;;;;;12644215;23;20187;-69
2022/05/10 00:16:28;;;;;;;2.80;2.60;;;;;;;;;;12617773;23;20617;-70
2022/05/10 00:21:29;;;;;;;2.67;2.17;;;;;;;;;;12617014;23;20191;-69
2022/05/10 00:26:30;;;;;;;2.58;2.38;;;;;;;;;;12618116;23;20212;-68
2022/05/10 00:31:31;;;;;;;4.90;2.42;;;;;;;;;;12644209;23;20201;-68
2022/05/10 00:36:32;;;;;;;5.07;2.38;;;;;;;;;;12646624;23;20364;-69
2022/05/10 00:41:42;;;;;;;2.33;2.13;;;;;;;;;;12617269;23;20239;-69
2022/05/10 00:46:45;;;;;;;2.25;1.88;;;;;;;;;;12642732;23;20181;-70
2022/05/10 00:51:53;;;;;;;2.88;2.60;;;;;;;;;;12645032;23;20187;-70
2022/05/10 00:56:57;;;;;;;2.15;2.05;;;;;;;;;;12615471;23;20224;-70
2022/05/10 01:02:01;;;;;;;3.30;2.70;;;;;;;;;;12641639;23;20205;-70
2022/05/10 01:07:02;;;;;;;2.42;2.17;;;;;;;;;;12637908;23;20184;-70
2022/05/10 01:12:13;;;;;;;2.30;2.13;;;;;;;;;;12588682;23;20545;-69
2022/05/10 01:17:14;;;;;;;2.45;1.95;;;;;;;;;;12638729;23;20189;-70
2022/05/10 01:22:20;;;;;;;2.58;2.33;;;;;;;;;;12614060;23;20177;-69
2022/05/10 01:27:40;;;;;;;2.10;1.95;;;;;;;;;;12640140;23;20255;-71
2022/05/10 01:38:09;;;;;;;3.25;2.17;;;;;;;;;;12632931;23;20192;-70
2022/05/10 01:43:15;;;;;;;5.05;2.83;;;;;;;;;;12642936;23;20184;-70
2022/05/10 01:48:18;;;;;;;3.25;2.45;;;;;;;;;;12615396;23;20523;-71
2022/05/10 01:53:21;;;;;;;3.22;2.58;;;;;;;;;;12645290;23;20209;-67
2022/05/10 01:58:33;;;;;;;4.28;2.45;;;;;;;;;;12610396;23;20193;-69
2022/05/10 02:03:37;;;;;;;3.97;2.72;;;;;;;;;;12631281;23;20715;-68
2022/05/10 02:08:42;;;;;;;3.25;2.50;;;;;;;;;;12621152;23;20216;-70
2022/05/10 02:14:00;;;;;;;4.95;2.90;;;;;;;;;;12641658;23;20181;-70
2022/05/10 02:19:07;;;;;;;2.42;2.30;;;;;;;;;;12636567;23;20192;-70
2022/05/10 02:24:13;;;;;;;3.63;3.08;;;;;;;;;;12643126;23;20575;-70
2022/05/10 02:29:17;;;;;;;4.93;2.83;;;;;;;;;;12585184;23;20229;-69
2022/05/10 02:34:19;;;;;;;3.38;3.08;;;;;;;;;;12550630;23;20916;-69
2022/05/10 02:39:20;;;;;;;3.90;3.40;;;;;;;;;;12579811;23;20178;-68
2022/05/10 02:44:21;;;;;;;3.63;3.33;;;;;;;;;;12581541;23;20293;-71
2022/05/10 02:49:23;;;;;;;5.35;3.55;;;;;;;;;;12583792;23;20181;-68
2022/05/10 02:54:24;;;;;;;3.83;3.50;;;;;;;;;;12552583;23;20189;-69
2022/05/10 02:59:28;;;;;;;3.67;3.35;;;;;;;;;;12559372;23;20586;-70
2022/05/10 03:04:49;;;;;;;4.05;3.30;;;;;;;;;;12580233;23;20209;-70
2022/05/10 03:09:50;;;;;;;3.38;3.08;;;;;;;;;;12558705;23;20189;-70
2022/05/10 03:14:53;;;;;;;3.83;3.33;;;;;;;;;;12552851;23;20221;-72
2022/05/10 03:19:54;;;;;;;5.28;3.22;;;;;;;;;;12584949;23;20184;-68
2022/05/10 03:24:55;;;;;;;3.70;3.13;;;;;;;;;;12582892;23;20242;-70
2022/05/10 03:29:56;;;;;;;7.07;4.13;;;;;;;;;;12618613;23;20209;-69
2022/05/10 03:34:58;;;;;;;6.20;3.65;;;;;;;;;;12640578;23;20233;-70
2022/05/10 03:39:59;;;;;;;5.68;3.55;;;;;;;;;;12639168;23;20212;-69
2022/05/10 03:45:02;;;;;;;5.38;3.60;;;;;;;;;;12634385;23;20267;-70
2022/05/10 03:50:04;;;;;;;5.18;3.40;;;;;;;;;;12640547;23;20701;-69
2022/05/10 03:55:06;;;;;;;5.63;4.03;;;;;;;;;;12644295;23;20192;-69
2022/05/10 04:00:08;;;;;;;5.18;4.50;;;;;;;;;;12643435;23;20180;-70
2022/05/10 04:05:15;;;;;;;11.02;6.05;;;;;;;;;;12639775;23;20209;-71
2022/05/10 04:10:17;;;;;;;9.25;5.35;;;;;;;;;;12639446;23;20192;-69
2022/05/10 04:15:18;;;;;;;5.57;4.93;;;;;;;;;;12641533;23;20507;-71
2022/05/10 04:20:19;;;;;;;8.40;4.55;;;;;;;;;;12633369;23;20184;-72
2022/05/10 04:25:25;;;;;;;7.80;4.72;;;;;;;;;;12624987;23;20200;-69
2022/05/10 04:30:26;;;;;;;4.93;3.95;;;;;;;;;;12626564;23;20616;-70
2022/05/10 04:35:27;;;;;;;8.93;3.63;;;;;;;;;;12627091;23;20260;-70
2022/05/10 04:45:48;;;;;;;7.30;4.03;;;;;;;;;;12622302;23;20291;-68
2022/05/10 04:50:49;;;;;;;4.10;3.72;;;;;;;;;;12627511;23;20188;-69
2022/05/10 04:55:50;;;;;;;4.47;3.70;;;;;;;;;;12638021;23;20199;-70
2022/05/10 05:00:52;;;;;;;6.82;4.32;;;;;;;;;;12637419;23;20204;-70
2022/05/10 05:05:53;;;;;;;8.23;4.03;;;;;;;;;;12635857;23;20173;-70
2022/05/10 05:10:56;;;;;;;7.70;4.30;;;;;;;;;;12632507;23;20183;-70
2022/05/10 05:15:57;;;;;;;6.20;4.32;;;;;;;;;;12643211;23;20276;-70
2022/05/10 05:20:59;;;;;;;8.57;4.45;;;;;;;;;;12647576;23;20236;-71
2022/05/10 05:26:00;;;;;;;6.18;4.35;;;;;;;;;;12644386;23;20200;-69
2022/05/10 05:31:02;;;;;;;5.93;3.97;;;;;;;;;;12646592;23;20259;-72
2022/05/10 05:36:04;;;;;;;5.28;3.85;;;;;;;;;;12640659;23;20707;-71
2022/05/10 05:41:05;;;;;;;6.07;4.03;;;;;;;;;;12617625;23;20177;-71
2022/05/10 05:46:07;;;;;;;6.43;4.25;;;;;;;;;;12647834;23;20620;-71
2022/05/10 05:51:09;;;;;;;9.98;4.38;;;;;;;;;;12645820;23;20260;-71
2022/05/10 05:56:11;;;;;;;5.10;3.90;;;;;;;;;;12643942;23;20193;-71
2022/05/10 06:01:13;;;;;;;7.15;3.97;;;;;;;;;;12643764;23;20212;-71
2022/05/10 06:06:14;;;;;;;8.23;4.65;;;;;;;;;;12637832;23;20635;-71
2022/05/10 06:11:15;;;;;;;7.25;4.40;;;;;;;;;;12610369;23;20180;-71
2022/05/10 06:16:16;;;;;;;6.13;3.92;;;;;;;;;;12614246;23;20202;-72
2022/05/10 06:21:17;;;;;;;4.80;4.35;;;;;;;;;;12635935;23;20200;-72
2022/05/10 06:26:18;;;;;;;6.90;4.72;;;;;;;;;;12636754;23;20204;-71
2022/05/10 06:31:20;;;;;;;8.20;3.85;;;;;;;;;;12639755;23;20201;-73
2022/05/10 06:36:22;;;;;;;5.28;4.30;;;;;;;;;;12592757;23;20192;-71
2022/05/10 06:41:24;;;;;;;4.75;4.10;;;;;;;;;;12644111;23;20578;-71
2022/05/10 06:46:26;;;;;;;4.22;3.90;;;;;;;;;;12645514;23;20725;-71
2022/05/10 06:51:27;;;;;;;6.18;4.00;;;;;;;;;;12619599;23;20847;-71
2022/05/10 06:56:29;;;;;;;7.38;4.47;;;;;;;;;;12644799;23;20256;-70
2022/05/10 07:01:30;;;;;;;12.95;4.05;;;;;;;;;;12618707;23;20204;-71
2022/05/10 07:06:31;;;;;;;9.68;4.00;;;;;;;;;;12645732;23;20180;-72
2022/05/10 07:11:32;;;;;;;5.63;4.05;;;;;;;;;;12641366;23;20355;-71
2022/05/10 07:16:33;;;;;;;6.40;3.45;;;;;;;;;;12613734;23;20383;-73
2022/05/10 07:21:34;;;;;;;6.85;3.75;;;;;;;;;;12640256;23;20268;-72
2022/05/10 07:26:35;;;;;;;6.53;3.45;;;;;;;;;;12612414;23;20888;-72
2022/05/10 07:31:36;;;;;;;8.73;4.15;;;;;;;;;;12639109;23;20201;-71
2022/05/10 07:36:38;;;;;;;8.40;3.40;;;;;;;;;;12644009;23;20197;-70
2022/05/10 07:41:39;;;;;;;8.38;3.83;;;;;;;;;;12641856;23;20183;-70
2022/05/10 07:46:40;;;;;;;6.70;3.35;;;;;;;;;;12632863;23;20208;-71
2022/05/10 07:51:42;;;;;;;6.03;4.07;;;;;;;;;;12630141;23;20185;-71
2022/05/10 07:56:43;;;;;;;9.60;3.38;;;;;;;;;;12610274;23;20196;-72
2022/05/10 08:01:44;;;;;;;4.40;3.90;;;;;;;;;;12609146;23;20232;-73
2022/05/10 08:06:46;;;;;;;5.15;3.58;;;;;;;;;;12636741;23;20208;-72
2022/05/10 08:11:47;;;;;;;4.38;3.47;;;;;;;;;;12632061;23;20181;-72
2022/05/10 08:16:48;;;;;;;4.63;4.22;;;;;;;;;;12638258;23;20197;-72
2022/05/10 08:21:52;;;;;;;4.75;4.20;;;;;;;;;;12632288;23;20189;-72
2022/05/10 08:26:53;;;;;;;4.20;3.78;;;;;;;;;;12639625;23;20212;-71
2022/05/10 08:31:55;;;;;;;9.93;4.47;;;;;;;;;;12608992;23;20204;-71
2022/05/10 08:36:56;;;;;;;4.35;3.80;;;;;;;;;;12632499;23;20255;-73
2022/05/10 08:42:20;;;;;;;5.53;3.97;;;;;;;;;;12641161;23;20177;-72
2022/05/10 08:47:21;;;;;;;7.60;4.03;;;;;;;;;;12641258;23;20683;-71
2022/05/10 08:52:26;;;;;;;4.60;4.20;;;;;;;;;;12613980;23;20247;-72
2022/05/10 08:57:27;;;;;;;5.25;3.58;;;;;;;;;;12637147;23;20193;-71
2022/05/10 09:02:40;;;;;;;5.32;3.30;;;;;;;;;;12608066;23;20263;-73
2022/05/10 09:07:48;;;;;;;3.45;1.98;;;;;;;;;;12639052;23;20212;-72
2022/05/10 09:12:53;;;;;;;4.22;2.30;;;;;;;;;;12634799;23;20195;-72
2022/05/10 09:17:57;;;;;;;3.65;2.03;;;;;;;;;;12629267;23;20200;-73
2022/05/10 09:23:10;;;;;;;3.10;2.83;;;;;;;;;;12611375;23;20189;-71
2022/05/10 09:28:20;;;;;;;2.75;2.55;;;;;;;;;;12607759;23;21201;-72
2022/05/10 09:38:47;;;;;;;5.32;2.65;;;;;;;;;;12641965;23;20208;-71
2022/05/10 09:43:48;;;;;;;4.93;2.33;;;;;;;;;;12641298;23;20173;-71
2022/05/10 09:48:49;;;;;;;6.63;2.40;;;;;;;;;;12638830;23;20315;-71
2022/05/10 09:53:50;;;;;;;11.05;2.80;;;;;;;;;;12611290;23;20192;-72
2022/05/10 09:58:55;;;;;;;2.67;2.47;;;;;;;;;;12635956;23;20200;-71
2022/05/10 10:04:12;;;;;;;3.80;1.92;;;;;;;;;;12584646;23;20216;-72
2022/05/10 10:09:32;;;;;;;3.90;2.03;;;;;;;;;;12636564;23;20176;-71
2022/05/10 10:14:38;;;;;;;2.97;2.30;;;;;;;;;;12611140;23;20185;-71
2022/05/10 10:19:43;;;;;;;6.53;2.40;;;;;;;;;;12610755;23;20176;-72
2022/05/10 10:24:50;;;;;;;3.72;1.95;;;;;;;;;;12633299;23;20288;-73
2022/05/10 10:30:05;;;;;;;2.05;1.90;;;;;;;;;;12638152;23;20231;-71
2022/05/10 10:35:18;;;;;;;2.03;1.80;;;;;;;;;;12635562;23;20214;-73
2022/05/10 10:40:32;;;;;;;5.57;1.92;;;;;;;;;;12604341;23;20181;-73
2022/05/10 10:45:36;;;;;;;2.28;2.08;;;;;;;;;;12631728;23;20200;-72
2022/05/10 10:50:38;;;;;;;2.67;2.60;;;;;;;;;;12610857;23;20189;-73
2022/05/10 10:55:59;;;;;;;2.17;1.98;;;;;;;;;;12634704;23;20196;-73
2022/05/10 11:01:12;;;;;;;2.10;2.00;;;;;;;;;;12635792;23;20252;-73
2022/05/10 11:06:26;;;;;;;1.77;1.65;;;;;;;;;;12635866;23;20283;-73
2022/05/10 11:11:48;;;;;;;1.98;1.60;;;;;;;;;;12637798;23;20189;-74
2022/05/10 11:16:49;;;;;;;1.65;1.55;;;;;;;;;;12636790;23;20201;-73
2022/05/10 11:22:09;;;;;;;1.92;1.83;;;;;;;;;;12636558;23;20232;-74
2022/05/10 11:27:22;;;;;;;1.70;1.70;;;;;;;;;;12641035;23;20212;-74
2022/05/10 11:32:30;;;;;;;1.85;1.85;;;;;;;;;;12641298;23;20208;-74
2022/05/10 11:37:33;;;;;;;2.05;1.95;;;;;;;;;;12612072;23;20631;-74
2022/05/10 11:42:44;;;;;;;1.85;1.75;;;;;;;;;;12609372;23;20177;-75
2022/05/10 11:47:54;;;;;;;2.20;1.70;;;;;;;;;;12639467;23;20181;-75
2022/05/10 11:53:13;;;;;;;1.70;1.60;;;;;;;;;;12618599;23;20192;-75
2022/05/10 11:58:14;;;;;;;2.47;1.98;;;;;;;;;;12644453;23;20927;-75
2022/05/10 12:03:35;;;;;;;1.60;1.50;;;;;;;;;;12646188;23;20204;-75
2022/05/10 12:08:36;;;;;;;2.17;1.52;;;;;;;;;;12646965;23;20187;-75
2022/05/10 12:24:30;;;;;;;2.03;1.92;;;;;;;;;;12640026;23;20550;-75
2022/05/10 12:29:40;;;;;;;2.45;2.25;;;;;;;;;;12644920;23;20208;-74
2022/05/10 12:34:44;;;;;;;1.75;1.50;;;;;;;;;;12638002;23;20207;-77
2022/05/10 12:39:51;;;;;;;1.77;1.55;;;;;;;;;;12590372;23;20185;-76
2022/05/10 12:45:02;;;;;;;2.17;1.60;;;;;;;;;;12643092;23;20207;-77
2022/05/10 12:50:03;;;;;;;3.00;1.65;;;;;;;;;;12648915;23;20181;-75
2022/05/10 12:55:06;;;;;;;1.95;1.85;;;;;;;;;;12607486;23;20232;-76
2022/05/10 13:00:07;;;;;;;2.03;2.03;;;;;;;;;;12609048;23;20177;-75
2022/05/10 13:05:14;;;;;;;2.00;2.00;;;;;;;;;;12638126;23;20288;-76
2022/05/10 13:10:21;;;;;;;2.20;2.10;;;;;;;;;;12616266;23;20188;-75
2022/05/10 13:15:23;;;;;;;1.92;1.83;;;;;;;;;;12637620;23;20201;-76
2022/05/10 13:20:26;;;;;;;2.22;2.05;;;;;;;;;;12635556;23;20177;-73
2022/05/10 13:25:36;;;;;;;1.67;1.67;;;;;;;;;;12577241;23;20292;-75
2022/05/10 13:30:38;;;;;;;2.08;1.67;;;;;;;;;;12603247;23;20217;-74
2022/05/10 13:35:41;;;;;;;6.25;1.65;;;;;;;;;;12638040;23;20216;-76
2022/05/10 13:40:44;;;;;;;1.80;1.70;;;;;;;;;;12637387;23;20248;-75
2022/05/10 13:45:50;;;;;;;1.75;1.70;;;;;;;;;;12612705;23;20185;-74
2022/05/10 13:50:54;;;;;;;1.63;1.50;;;;;;;;;;12641032;23;20777;-76
2022/05/10 13:55:56;;;;;;;1.88;1.60;;;;;;;;;;12636832;23;20268;-75
2022/05/10 14:00:57;;;;;;;3.65;1.48;;;;;;;;;;12637319;23;20251;-74
2022/05/10 14:05:59;;;;;;;2.25;1.40;;;;;;;;;;12607613;23;20493;-75
2022/05/10 14:11:07;;;;;;;1.60;1.60;;;;;;;;;;12615213;23;20246;-75
2022/05/10 14:16:10;;;;;;;2.25;1.60;;;;;;;;;;12604759;23;20246;-75
2022/05/10 14:21:17;;;;;;;1.35;1.30;;;;;;;;;;12603580;23;20173;-75
2022/05/10 14:26:24;;;;;;;2.25;1.75;;;;;;;;;;12638307;23;20200;-74
2022/05/10 14:31:30;;;;;;;1.60;1.60;;;;;;;;;;12613211;23;20877;-74
2022/05/10 14:36:36;;;;;;;3.25;1.83;;;;;;;;;;12610833;23;20204;-74
2022/05/10 14:41:41;;;;;;;1.77;1.60;;;;;;;;;;12635341;23;20181;-73
2022/05/10 14:46:53;;;;;;;2.78;1.85;;;;;;;;;;12635768;23;20189;-74
2022/05/10 14:51:54;;;;;;;3.58;1.70;;;;;;;;;;12609803;23;20181;-73
2022/05/10 14:56:58;;;;;;;1.50;1.50;;;;;;;;;;12608444;23;20310;-74
2022/05/10 15:01:59;;;;;;;2.05;1.95;;;;;;;;;;12608637;23;20212;-74
2022/05/10 15:07:00;;;;;;;1.75;1.65;;;;;;;;;;12626393;23;20192;-72
2022/05/10 15:17:21;;;;;;;3.28;1.27;;;;;;;;;;12636539;23;20193;-74
2022/05/10 15:22:22;;;;;;;3.00;1.48;;;;;;;;;;12643619;23;20184;-73
2022/05/10 15:27:23;;;;;;;4.03;1.40;;;;;;;;;;12641656;23;20204;-73
2022/05/10 15:32:24;;;;;;;2.35;1.58;;;;;;;;;;12643193;23;20268;-72
2022/05/10 15:37:27;;;;;;;3.15;1.52;;;;;;;;;;12608392;23;20188;-72
2022/05/10 15:42:32;;;;;;;1.60;1.50;;;;;;;;;;12635732;23;20259;-72
2022/05/10 15:47:35;;;;;;;1.38;1.38;;;;;;;;;;12638870;23;20177;-72
2022/05/10 15:52:36;;;;;;;1.52;1.45;;;;;;;;;;12595304;23;20177;-74
2022/05/10 15:57:40;;;;;;;4.38;1.67;;;;;;;;;;12629772;23;20192;-73
2022/05/10 16:02:41;;;;;;;1.63;1.45;;;;;;;;;;12636364;23;20200;-72
2022/05/10 16:07:42;;;;;;;1.50;1.40;;;;;;;;;;12646202;23;20196;-73
2022/05/10 16:12:43;;;;;;;1.42;1.42;;;;;;;;;;12648785;23;20176;-74
2022/05/10 16:17:48;;;;;;;1.70;1.60;;;;;;;;;;12633123;23;20649;-72
2022/05/10 16:22:49;;;;;;;2.80;1.73;;;;;;;;;;12642733;23;20236;-73
2022/05/10 16:33:10;;;;;;;1.92;1.83;;;;;;;;;;12634388;23;20245;-73
2022/05/10 16:38:11;;;;;;;3.72;1.63;;;;;;;;;;12633479;23;20196;-72
2022/05/10 16:43:15;;;;;;;1.83;1.73;;;;;;;;;;12639350;23;20272;-73
2022/05/10 16:48:17;;;;;;;1.58;1.58;;;;;;;;;;12639944;23;20176;-72
2022/05/10 16:53:18;;;;;;;3.15;1.60;;;;;;;;;;12638327;23;20548;-72
2022/05/10 16:58:20;;;;;;;1.92;1.80;;;;;;;;;;12634595;23;20203;-71
2022/05/10 17:03:22;;;;;;;1.60;1.50;;;;;;;;;;12634491;23;20200;-71
2022/05/10 17:08:23;;;;;;;3.10;1.75;;;;;;;;;;12616730;23;20177;-72
2022/05/10 17:13:24;;;;;;;2.22;2.08;;;;;;;;;;12639997;23;20533;-71
2022/05/10 17:18:25;;;;;;;3.85;2.22;;;;;;;;;;12626220;23;20193;-72
2022/05/10 17:23:26;;;;;;;2.03;2.00;;;;;;;;;;12607225;23;20177;-72
2022/05/10 17:33:49;;;;;;;2.72;2.13;;;;;;;;;;12641266;23;20267;-72
2022/05/10 17:38:50;;;;;;;2.03;2.00;;;;;;;;;;12639437;23;20212;-72
2022/05/10 17:43:52;;;;;;;2.35;2.35;;;;;;;;;;12641241;23;20176;-71
2022/05/10 17:48:53;;;;;;;2.35;2.25;;;;;;;;;;12643445;23;20222;-72
2022/05/10 17:53:56;;;;;;;1.92;1.83;;;;;;;;;;12637653;23;20187;-71
2022/05/10 17:58:57;;;;;;;3.20;2.20;;;;;;;;;;12622964;23;20256;-71
2022/05/10 18:03:59;;;;;;;2.30;2.13;;;;;;;;;;12622083;23;20287;-72
2022/05/10 18:09:00;;;;;;;3.25;2.35;;;;;;;;;;12631088;23;20187;-72
2022/05/10 18:14:02;;;;;;;3.13;2.00;;;;;;;;;;12632991;23;20188;-72
2022/05/10 18:19:03;;;;;;;4.50;2.25;;;;;;;;;;12643647;23;20370;-70
2022/05/10 18:24:05;;;;;;;2.80;2.10;;;;;;;;;;12641526;23;20177;-71
2022/05/10 18:29:07;;;;;;;2.72;2.13;;;;;;;;;;12643795;23;20211;-70
2022/05/10 18:34:10;;;;;;;2.88;2.63;;;;;;;;;;12620621;23;20241;-73
2022/05/10 18:39:13;;;;;;;9.07;5.68;;;;;;;;;;12620996;23;20934;-75
2022/05/10 18:44:14;;;;;;;9.40;5.82;;;;;;;;;;12618008;23;20225;-74
2022/05/10 18:49:15;;;;;;;6.15;3.90;;;;;;;;;;12620574;23;20211;-75
2022/05/10 18:54:16;;;;;;;2.92;2.72;;;;;;;;;;12618729;23;20192;-75
2022/05/10 18:59:17;;;;;;;2.90;2.35;;;;;;;;;;12590937;23;20477;-73
2022/05/10 19:04:18;;;;;;;2.20;2.20;;;;;;;;;;12638740;23;20211;-74
2022/05/10 19:09:21;;;;;;;2.60;2.40;;;;;;;;;;12612445;23;20273;-73
2022/05/10 19:14:22;;;;;;;2.53;2.30;;;;;;;;;;12642552;23;20181;-74
2022/05/10 19:19:29;;;;;;;3.50;2.40;;;;;;;;;;12617280;23;20201;-73
2022/05/10 19:24:30;;;;;;;4.35;2.40;;;;;;;;;;12641456;23;20184;-74
2022/05/10 19:29:31;;;;;;;3.03;2.83;;;;;;;;;;12639316;23;20303;-73
2022/05/10 19:34:32;;;;;;;3.58;2.78;;;;;;;;;;12643973;23;20219;-73
2022/05/10 19:39:33;;;;;;;2.80;2.60;;;;;;;;;;12615821;23;20243;-75
2022/05/10 19:44:36;;;;;;;3.85;2.33;;;;;;;;;;12632352;23;20185;-73
2022/05/10 19:49:37;;;;;;;2.60;2.42;;;;;;;;;;12637212;23;20852;-72
2022/05/10 19:54:38;;;;;;;2.85;2.67;;;;;;;;;;12620327;23;20247;-72
2022/05/10 19:59:40;;;;;;;2.97;2.78;;;;;;;;;;12631820;23;20224;-72
2022/05/10 20:10:01;;;;;;;3.30;3.15;;;;;;;;;;12639973;23;20204;-70
2022/05/10 20:15:03;;;;;;;3.28;3.17;;;;;;;;;;12638598;23;20236;-71
2022/05/10 20:20:04;;;;;;;3.03;2.70;;;;;;;;;;12637026;23;20211;-72
2022/05/10 20:25:06;;;;;;;6.13;3.10;;;;;;;;;;12631753;23;20177;-70
2022/05/10 20:30:08;;;;;;;2.92;2.80;;;;;;;;;;12615788;23;20208;-72
2022/05/10 20:35:10;;;;;;;3.63;3.50;;;;;;;;;;12640912;23;20204;-72
2022/05/10 20:40:14;;;;;;;2.90;2.80;;;;;;;;;;12646623;23;20181;-71
2022/05/10 20:45:16;;;;;;;3.30;3.20;;;;;;;;;;12638976;23;20201;-71
2022/05/10 20:50:17;;;;;;;3.65;3.45;;;;;;;;;;12618149;23;20177;-71
2022/05/10 20:55:19;;;;;;;3.67;3.58;;;;;;;;;;12593908;23;20235;-72
2022/05/10 21:00:21;;;;;;;3.22;3.10;;;;;;;;;;12635417;23;20635;-71
2022/05/10 21:05:24;;;;;;;3.30;3.10;;;;;;;;;;12636626;23;20181;-72
2022/05/10 21:10:25;;;;;;;3.53;3.33;;;;;;;;;;12642089;23;20537;-71
2022/05/10 21:15:26;;;;;;;3.92;3.60;;;;;;;;;;12645814;23;20195;-72
2022/05/10 21:20:46;;;;;;;3.58;3.35;;;;;;;;;;12638616;23;20252;-71
2022/05/10 21:26:06;;;;;;;4.00;3.80;;;;;;;;;;12642619;23;20283;-72
2022/05/10 21:31:16;;;;;;;3.60;3.40;;;;;;;;;;12643399;23;20300;-72
2022/05/10 21:36:17;;;;;;;3.83;3.70;;;;;;;;;;12641007;23;20193;-72
2022/05/10 21:41:20;;;;;;;3.88;3.53;;;;;;;;;;12587346;23;20232;-72
2022/05/10 21:46:21;;;;;;;3.65;3.55;;;;;;;;;;12638448;23;20181;-71
2022/05/10 21:51:22;;;;;;;3.72;3.45;;;;;;;;;;12643034;23;20552;-72
2022/05/10 21:56:24;;;;;;;3.97;3.72;;;;;;;;;;12639163;23;20204;-71
2022/05/10 22:01:25;;;;;;;3.97;3.85;;;;;;;;;;12635644;23;20250;-70
2022/05/10 22:06:26;;;;;;;7.55;4.43;;;;;;;;;;12635835;23;20351;-71
2022/05/10 22:11:27;;;;;;;4.72;4.43;;;;;;;;;;12608744;23;20284;-71
2022/05/10 22:16:28;;;;;;;5.10;4.68;;;;;;;;;;12626661;23;20189;-71
2022/05/10 22:21:31;;;;;;;5.32;4.75;;;;;;;;;;12631704;23;20185;-72
2022/05/10 22:26:32;;;;;;;5.75;5.35;;;;;;;;;;12630905;23;20921;-71
2022/05/10 22:31:33;;;;;;;7.95;6.90;;;;;;;;;;12630651;23;20204;-70
2022/05/10 22:36:37;;;;;;;7.78;7.03;;;;;;;;;;12608641;23;20209;-71
2022/05/10 22:41:39;;;;;;;8.45;7.75;;;;;;;;;;12637840;23;20177;-71
2022/05/10 22:46:40;;;;;;;7.57;6.88;;;;;;;;;;12636400;23;20188;-72
2022/05/10 22:51:41;;;;;;;8.70;7.80;;;;;;;;;;12613342;23;20184;-72
2022/05/10 22:56:42;;;;;;;8.00;7.28;;;;;;;;;;12636024;23;20267;-70
2022/05/10 23:01:43;;;;;;;9.95;8.25;;;;;;;;;;12634212;23;20288;-72
2022/05/10 23:06:44;;;;;;;8.70;7.93;;;;;;;;;;12586802;23;20185;-71
2022/05/10 23:11:46;;;;;;;9.48;8.63;;;;;;;;;;12613946;23;20857;-70
2022/05/10 23:16:47;;;;;;;8.98;8.23;;;;;;;;;;12632525;23;20193;-72
2022/05/10 23:21:48;;;;;;;11.43;8.77;;;;;;;;;;12640200;23;20916;-73
2022/05/10 23:26:49;;;;;;;10.13;8.55;;;;;;;;;;12641203;23;20259;-72
2022/05/10 23:31:50;;;;;;;9.25;8.45;;;;;;;;;;12631973;23;20204;-73
2022/05/10 23:36:51;;;;;;;12.80;7.97;;;;;;;;;;12639492;23;20212;-70
2022/05/10 23:41:52;;;;;;;9.82;8.82;;;;;;;;;;12630897;23;20185;-71
2022/05/10 23:46:53;;;;;;;9.18;8.27;;;;;;;;;;12611299;23;20192;-72
2022/05/10 23:51:56;;;;;;;8.88;8.00;;;;;;;;;;12605870;23;20195;-71
2022/05/10 23:56:58;;;;;;;14.10;8.85;;;;;;;;;;12636081;23;20192;-71
